sensor_id;sensor_type;location;lat;lon;timestamp;P1;durP1;ratioP1;P2;durP2;ratioP2
20637;SDS011;10478;49.004;8.470;2022-07-15T00:00:26;4.07;;;2.50;;
20637;SDS011;10478;49.004;8.470;2022-07-15T00:02:51;4.53;;;2.08;;
20637;SDS011;10478;49.004;8.470;2022-07-15T00:05:17;6.35;;;2.50;;
20637;SDS011;10478;49.004;8.470;2022-07-15T00:07:43;6.15;;;2.20;;
20637;SDS011;10478;49.004;8.470;2022-07-15T00:10:08;4.35;;;3.13;;
20637;SDS011;10478;49.004;8.470;2022-07-15T00:12:47;7.03;;;2.83;;
20637;SDS011;10478;49.004;8.470;2022-07-15T00:15:14;4.15;;;2.42;;
20637;SDS011;10478;49.004;8.470;2022-07-15T00:17:40;7.50;;;2.10;;
20637;SDS011;10478;49.004;8.470;2022-07-15T00:20:06;4.93;;;2.10;;
20637;SDS011;10478;49.004;8.470;2022-07-15T00:22:32;6.65;;;2.42;;
20637;SDS011;10478;49.004;8.470;2022-07-15T00:24:58;3.03;;;2.13;;
20637;SDS011;10478;49.004;8.470;2022-07-15T00:27:23;5.38;;;2.63;;
20637;SDS011;10478;49.004;8.470;2022-07-15T00:29:49;4.18;;;2.20;;
20637;SDS011;10478;49.004;8.470;2022-07-15T00:32:15;8.18;;;3.00;;
20637;SDS011;10478;49.004;8.470;2022-07-15T00:34:40;4.75;;;2.60;;
20637;SDS011;10478;49.004;8.470;2022-07-15T00:37:05;5.63;;;2.85;;
20637;SDS011;10478;49.004;8.470;2022-07-15T00:39:31;4.35;;;2.60;;
20637;SDS011;10478;49.004;8.470;2022-07-15T00:41:56;7.80;;;3.20;;
20637;SDS011;10478;49.004;8.470;2022-07-15T00:44:21;5.85;;;2.50;;
20637;SDS011;10478;49.004;8.470;2022-07-15T00:46:47;6.45;;;2.70;;
20637;SDS011;10478;49.004;8.470;2022-07-15T00:49:13;4.47;;;2.40;;
20637;SDS011;10478;49.004;8.470;2022-07-15T00:51:42;5.25;;;2.53;;
20637;SDS011;10478;49.004;8.470;2022-07-15T00:54:10;4.68;;;2.25;;
20637;SDS011;10478;49.004;8.470;2022-07-15T00:56:37;5.07;;;2.97;;
20637;SDS011;10478;49.004;8.470;2022-07-15T00:59:04;7.80;;;3.13;;
20637;SDS011;10478;49.004;8.470;2022-07-15T01:01:30;7.90;;;3.17;;
20637;SDS011;10478;49.004;8.470;2022-07-15T01:03:56;6.95;;;3.00;;
20637;SDS011;10478;49.004;8.470;2022-07-15T01:06:22;9.38;;;3.78;;
20637;SDS011;10478;49.004;8.470;2022-07-15T01:08:48;5.25;;;2.78;;
20637;SDS011;10478;49.004;8.470;2022-07-15T01:11:15;5.55;;;2.83;;
20637;SDS011;10478;49.004;8.470;2022-07-15T01:13:40;7.05;;;2.53;;
20637;SDS011;10478;49.004;8.470;2022-07-15T01:16:06;7.22;;;3.00;;
20637;SDS011;10478;49.004;8.470;2022-07-15T01:18:31;6.03;;;2.88;;
20637;SDS011;10478;49.004;8.470;2022-07-15T01:20:57;6.90;;;2.63;;
20637;SDS011;10478;49.004;8.470;2022-07-15T01:23:22;3.80;;;2.50;;
20637;SDS011;10478;49.004;8.470;2022-07-15T01:25:47;7.97;;;2.72;;
20637;SDS011;10478;49.004;8.470;2022-07-15T01:28:13;5.18;;;2.30;;
20637;SDS011;10478;49.004;8.470;2022-07-15T01:30:38;4.53;;;2.25;;
20637;SDS011;10478;49.004;8.470;2022-07-15T01:33:04;2.83;;;2.20;;
20637;SDS011;10478;49.004;8.470;2022-07-15T01:35:29;6.10;;;2.78;;
20637;SDS011;10478;49.004;8.470;2022-07-15T01:37:55;5.35;;;2.30;;
20637;SDS011;10478;49.004;8.470;2022-07-15T01:40:20;3.35;;;2.13;;
20637;SDS011;10478;49.004;8.470;2022-07-15T01:42:45;3.70;;;2.17;;
20637;SDS011;10478;49.004;8.470;2022-07-15T01:45:11;3.70;;;1.67;;
20637;SDS011;10478;49.004;8.470;2022-07-15T01:47:46;3.03;;;1.95;;
20637;SDS011;10478;49.004;8.470;2022-07-15T01:50:13;4.95;;;2.60;;
20637;SDS011;10478;49.004;8.470;2022-07-15T01:52:39;3.78;;;2.10;;
20637;SDS011;10478;49.004;8.470;2022-07-15T01:55:05;3.60;;;2.35;;
20637;SDS011;10478;49.004;8.470;2022-07-15T01:57:31;3.05;;;1.80;;
20637;SDS011;10478;49.004;8.470;2022-07-15T01:59:56;3.45;;;1.83;;
20637;SDS011;10478;49.004;8.470;2022-07-15T02:02:21;3.70;;;2.53;;
20637;SDS011;10478;49.004;8.470;2022-07-15T02:04:47;4.07;;;2.25;;
20637;SDS011;10478;49.004;8.470;2022-07-15T02:07:12;5.50;;;2.25;;
20637;SDS011;10478;49.004;8.470;2022-07-15T02:09:38;4.82;;;2.40;;
20637;SDS011;10478;49.004;8.470;2022-07-15T02:12:03;2.92;;;1.80;;
20637;SDS011;10478;49.004;8.470;2022-07-15T02:14:29;4.63;;;2.30;;
20637;SDS011;10478;49.004;8.470;2022-07-15T02:16:54;7.90;;;2.42;;
20637;SDS011;10478;49.004;8.470;2022-07-15T02:19:20;4.22;;;2.13;;
20637;SDS011;10478;49.004;8.470;2022-07-15T02:21:46;4.60;;;2.67;;
20637;SDS011;10478;49.004;8.470;2022-07-15T02:24:12;3.50;;;2.20;;
20637;SDS011;10478;49.004;8.470;2022-07-15T02:26:38;2.58;;;2.13;;
20637;SDS011;10478;49.004;8.470;2022-07-15T02:29:04;4.63;;;2.22;;
20637;SDS011;10478;49.004;8.470;2022-07-15T02:31:29;4.32;;;1.70;;
20637;SDS011;10478;49.004;8.470;2022-07-15T02:33:55;3.92;;;2.35;;
20637;SDS011;10478;49.004;8.470;2022-07-15T02:36:20;5.22;;;2.25;;
20637;SDS011;10478;49.004;8.470;2022-07-15T02:38:45;6.18;;;2.10;;
20637;SDS011;10478;49.004;8.470;2022-07-15T02:41:11;4.32;;;1.90;;
20637;SDS011;10478;49.004;8.470;2022-07-15T02:43:39;3.85;;;2.13;;
20637;SDS011;10478;49.004;8.470;2022-07-15T02:46:06;3.97;;;2.42;;
20637;SDS011;10478;49.004;8.470;2022-07-15T02:48:32;6.30;;;2.17;;
20637;SDS011;10478;49.004;8.470;2022-07-15T02:50:57;3.22;;;2.22;;
20637;SDS011;10478;49.004;8.470;2022-07-15T02:53:23;3.88;;;2.00;;
20637;SDS011;10478;49.004;8.470;2022-07-15T02:55:53;3.63;;;2.33;;
20637;SDS011;10478;49.004;8.470;2022-07-15T02:58:19;3.92;;;2.58;;
20637;SDS011;10478;49.004;8.470;2022-07-15T03:00:45;3.95;;;2.45;;
20637;SDS011;10478;49.004;8.470;2022-07-15T03:03:10;2.50;;;1.70;;
20637;SDS011;10478;49.004;8.470;2022-07-15T03:05:35;3.72;;;2.38;;
20637;SDS011;10478;49.004;8.470;2022-07-15T03:08:01;8.13;;;2.00;;
20637;SDS011;10478;49.004;8.470;2022-07-15T03:10:26;3.20;;;1.90;;
20637;SDS011;10478;49.004;8.470;2022-07-15T03:12:51;5.57;;;2.03;;
20637;SDS011;10478;49.004;8.470;2022-07-15T03:15:17;4.22;;;2.03;;
20637;SDS011;10478;49.004;8.470;2022-07-15T03:17:42;4.65;;;2.40;;
20637;SDS011;10478;49.004;8.470;2022-07-15T03:20:08;3.47;;;2.42;;
20637;SDS011;10478;49.004;8.470;2022-07-15T03:22:34;4.07;;;2.25;;
20637;SDS011;10478;49.004;8.470;2022-07-15T03:24:59;4.95;;;2.03;;
20637;SDS011;10478;49.004;8.470;2022-07-15T03:27:25;4.35;;;2.30;;
20637;SDS011;10478;49.004;8.470;2022-07-15T03:29:50;3.17;;;2.42;;
20637;SDS011;10478;49.004;8.470;2022-07-15T03:32:16;3.53;;;2.28;;
20637;SDS011;10478;49.004;8.470;2022-07-15T03:34:42;8.07;;;3.15;;
20637;SDS011;10478;49.004;8.470;2022-07-15T03:37:08;5.55;;;3.15;;
20637;SDS011;10478;49.004;8.470;2022-07-15T03:39:33;4.00;;;2.22;;
20637;SDS011;10478;49.004;8.470;2022-07-15T03:41:59;3.08;;;2.03;;
20637;SDS011;10478;49.004;8.470;2022-07-15T03:44:24;5.90;;;2.55;;
20637;SDS011;10478;49.004;8.470;2022-07-15T03:46:49;3.78;;;1.88;;
20637;SDS011;10478;49.004;8.470;2022-07-15T03:49:15;8.55;;;2.30;;
20637;SDS011;10478;49.004;8.470;2022-07-15T03:51:40;3.38;;;2.35;;
20637;SDS011;10478;49.004;8.470;2022-07-15T03:54:06;3.70;;;2.45;;
20637;SDS011;10478;49.004;8.470;2022-07-15T03:56:32;5.05;;;2.33;;
20637;SDS011;10478;49.004;8.470;2022-07-15T03:58:57;7.15;;;2.50;;
20637;SDS011;10478;49.004;8.470;2022-07-15T04:01:23;6.82;;;2.85;;
20637;SDS011;10478;49.004;8.470;2022-07-15T04:03:49;5.47;;;2.80;;
20637;SDS011;10478;49.004;8.470;2022-07-15T04:06:15;4.70;;;2.53;;
20637;SDS011;10478;49.004;8.470;2022-07-15T04:08:41;5.97;;;2.75;;
20637;SDS011;10478;49.004;8.470;2022-07-15T04:11:07;3.88;;;2.80;;
20637;SDS011;10478;49.004;8.470;2022-07-15T04:13:32;5.53;;;2.45;;
20637;SDS011;10478;49.004;8.470;2022-07-15T04:15:57;4.15;;;2.65;;
20637;SDS011;10478;49.004;8.470;2022-07-15T04:18:22;5.30;;;2.55;;
20637;SDS011;10478;49.004;8.470;2022-07-15T04:20:48;8.27;;;3.45;;
20637;SDS011;10478;49.004;8.470;2022-07-15T04:23:13;6.15;;;3.15;;
20637;SDS011;10478;49.004;8.470;2022-07-15T04:25:39;4.82;;;3.22;;
20637;SDS011;10478;49.004;8.470;2022-07-15T04:28:05;5.00;;;2.65;;
20637;SDS011;10478;49.004;8.470;2022-07-15T04:30:30;5.30;;;2.83;;
20637;SDS011;10478;49.004;8.470;2022-07-15T04:32:55;4.22;;;2.83;;
20637;SDS011;10478;49.004;8.470;2022-07-15T04:35:21;4.05;;;2.70;;
20637;SDS011;10478;49.004;8.470;2022-07-15T04:37:46;4.40;;;2.47;;
20637;SDS011;10478;49.004;8.470;2022-07-15T04:40:12;7.18;;;2.45;;
20637;SDS011;10478;49.004;8.470;2022-07-15T04:42:37;5.97;;;3.60;;
20637;SDS011;10478;49.004;8.470;2022-07-15T04:45:02;7.65;;;4.40;;
20637;SDS011;10478;49.004;8.470;2022-07-15T04:47:28;13.85;;;8.93;;
20637;SDS011;10478;49.004;8.470;2022-07-15T04:49:53;6.10;;;3.03;;
20637;SDS011;10478;49.004;8.470;2022-07-15T04:52:42;4.00;;;2.90;;
20637;SDS011;10478;49.004;8.470;2022-07-15T04:55:10;3.70;;;2.78;;
20637;SDS011;10478;49.004;8.470;2022-07-15T04:57:36;7.97;;;3.63;;
20637;SDS011;10478;49.004;8.470;2022-07-15T05:00:02;7.82;;;2.95;;
20637;SDS011;10478;49.004;8.470;2022-07-15T05:02:28;4.75;;;3.05;;
20637;SDS011;10478;49.004;8.470;2022-07-15T05:04:53;6.70;;;2.78;;
20637;SDS011;10478;49.004;8.470;2022-07-15T05:07:19;6.28;;;3.08;;
20637;SDS011;10478;49.004;8.470;2022-07-15T05:09:44;7.63;;;2.60;;
20637;SDS011;10478;49.004;8.470;2022-07-15T05:12:09;6.10;;;3.15;;
20637;SDS011;10478;49.004;8.470;2022-07-15T05:14:35;4.07;;;2.33;;
20637;SDS011;10478;49.004;8.470;2022-07-15T05:17:00;5.22;;;3.00;;
20637;SDS011;10478;49.004;8.470;2022-07-15T05:19:25;10.05;;;3.20;;
20637;SDS011;10478;49.004;8.470;2022-07-15T05:21:51;4.47;;;2.40;;
20637;SDS011;10478;49.004;8.470;2022-07-15T05:24:16;5.65;;;3.05;;
20637;SDS011;10478;49.004;8.470;2022-07-15T05:26:44;6.07;;;3.20;;
20637;SDS011;10478;49.004;8.470;2022-07-15T05:29:09;8.68;;;3.08;;
20637;SDS011;10478;49.004;8.470;2022-07-15T05:31:34;4.80;;;2.65;;
20637;SDS011;10478;49.004;8.470;2022-07-15T05:34:00;5.15;;;3.25;;
20637;SDS011;10478;49.004;8.470;2022-07-15T05:36:25;5.63;;;2.85;;
20637;SDS011;10478;49.004;8.470;2022-07-15T05:38:50;5.65;;;3.10;;
20637;SDS011;10478;49.004;8.470;2022-07-15T05:41:17;7.63;;;3.20;;
20637;SDS011;10478;49.004;8.470;2022-07-15T05:43:43;6.22;;;3.45;;
20637;SDS011;10478;49.004;8.470;2022-07-15T05:46:08;8.80;;;3.47;;
20637;SDS011;10478;49.004;8.470;2022-07-15T05:48:33;10.50;;;3.75;;
20637;SDS011;10478;49.004;8.470;2022-07-15T05:51:00;7.45;;;4.18;;
20637;SDS011;10478;49.004;8.470;2022-07-15T05:53:25;9.70;;;4.07;;
20637;SDS011;10478;49.004;8.470;2022-07-15T05:55:51;6.50;;;3.33;;
20637;SDS011;10478;49.004;8.470;2022-07-15T05:58:17;8.05;;;3.10;;
20637;SDS011;10478;49.004;8.470;2022-07-15T06:00:42;9.57;;;3.65;;
20637;SDS011;10478;49.004;8.470;2022-07-15T06:03:08;6.05;;;3.30;;
20637;SDS011;10478;49.004;8.470;2022-07-15T06:05:33;6.18;;;3.50;;
20637;SDS011;10478;49.004;8.470;2022-07-15T06:07:58;11.77;;;3.15;;
20637;SDS011;10478;49.004;8.470;2022-07-15T06:10:24;7.40;;;4.00;;
20637;SDS011;10478;49.004;8.470;2022-07-15T06:12:49;9.65;;;3.03;;
20637;SDS011;10478;49.004;8.470;2022-07-15T06:15:17;5.90;;;2.95;;
20637;SDS011;10478;49.004;8.470;2022-07-15T06:17:43;10.48;;;3.08;;
20637;SDS011;10478;49.004;8.470;2022-07-15T06:20:08;6.47;;;3.67;;
20637;SDS011;10478;49.004;8.470;2022-07-15T06:22:34;6.95;;;2.75;;
20637;SDS011;10478;49.004;8.470;2022-07-15T06:24:59;5.78;;;2.97;;
20637;SDS011;10478;49.004;8.470;2022-07-15T06:27:24;3.72;;;2.58;;
20637;SDS011;10478;49.004;8.470;2022-07-15T06:29:50;6.25;;;2.22;;
20637;SDS011;10478;49.004;8.470;2022-07-15T06:32:16;3.35;;;2.17;;
20637;SDS011;10478;49.004;8.470;2022-07-15T06:34:42;10.75;;;2.42;;
20637;SDS011;10478;49.004;8.470;2022-07-15T06:37:08;4.95;;;2.33;;
20637;SDS011;10478;49.004;8.470;2022-07-15T06:39:33;6.47;;;2.22;;
20637;SDS011;10478;49.004;8.470;2022-07-15T06:41:59;10.00;;;2.05;;
20637;SDS011;10478;49.004;8.470;2022-07-15T06:44:25;4.75;;;2.03;;
20637;SDS011;10478;49.004;8.470;2022-07-15T06:46:50;3.22;;;1.65;;
20637;SDS011;10478;49.004;8.470;2022-07-15T06:49:15;6.65;;;2.40;;
20637;SDS011;10478;49.004;8.470;2022-07-15T06:51:41;7.32;;;2.45;;
20637;SDS011;10478;49.004;8.470;2022-07-15T06:54:06;4.18;;;2.40;;
20637;SDS011;10478;49.004;8.470;2022-07-15T06:56:32;3.25;;;1.70;;
20637;SDS011;10478;49.004;8.470;2022-07-15T06:58:57;11.25;;;2.20;;
20637;SDS011;10478;49.004;8.470;2022-07-15T07:01:23;4.80;;;1.75;;
20637;SDS011;10478;49.004;8.470;2022-07-15T07:03:48;6.60;;;1.90;;
20637;SDS011;10478;49.004;8.470;2022-07-15T07:06:13;3.20;;;2.03;;
20637;SDS011;10478;49.004;8.470;2022-07-15T07:08:39;5.82;;;1.50;;
20637;SDS011;10478;49.004;8.470;2022-07-15T07:11:04;4.45;;;1.50;;
20637;SDS011;10478;49.004;8.470;2022-07-15T07:13:30;7.95;;;1.85;;
20637;SDS011;10478;49.004;8.470;2022-07-15T07:15:55;6.13;;;1.98;;
20637;SDS011;10478;49.004;8.470;2022-07-15T07:18:20;5.43;;;1.55;;
20637;SDS011;10478;49.004;8.470;2022-07-15T07:20:46;3.65;;;1.55;;
20637;SDS011;10478;49.004;8.470;2022-07-15T07:23:11;6.82;;;1.75;;
20637;SDS011;10478;49.004;8.470;2022-07-15T07:25:36;6.35;;;1.73;;
20637;SDS011;10478;49.004;8.470;2022-07-15T07:28:02;3.20;;;1.40;;
20637;SDS011;10478;49.004;8.470;2022-07-15T07:30:29;4.20;;;1.63;;
20637;SDS011;10478;49.004;8.470;2022-07-15T07:32:54;3.05;;;1.13;;
20637;SDS011;10478;49.004;8.470;2022-07-15T07:35:20;7.43;;;1.50;;
20637;SDS011;10478;49.004;8.470;2022-07-15T07:37:45;4.15;;;2.05;;
20637;SDS011;10478;49.004;8.470;2022-07-15T07:40:10;6.05;;;1.45;;
20637;SDS011;10478;49.004;8.470;2022-07-15T07:42:36;2.55;;;1.38;;
20637;SDS011;10478;49.004;8.470;2022-07-15T07:45:01;2.38;;;1.25;;
20637;SDS011;10478;49.004;8.470;2022-07-15T07:47:27;2.40;;;1.55;;
20637;SDS011;10478;49.004;8.470;2022-07-15T07:49:52;4.43;;;1.70;;
20637;SDS011;10478;49.004;8.470;2022-07-15T07:52:18;2.90;;;1.48;;
20637;SDS011;10478;49.004;8.470;2022-07-15T07:54:43;2.83;;;1.30;;
20637;SDS011;10478;49.004;8.470;2022-07-15T07:57:09;2.67;;;1.20;;
20637;SDS011;10478;49.004;8.470;2022-07-15T07:59:35;5.13;;;1.40;;
20637;SDS011;10478;49.004;8.470;2022-07-15T08:02:00;7.50;;;1.50;;
20637;SDS011;10478;49.004;8.470;2022-07-15T08:04:26;4.43;;;1.42;;
20637;SDS011;10478;49.004;8.470;2022-07-15T08:06:51;2.38;;;0.85;;
20637;SDS011;10478;49.004;8.470;2022-07-15T08:09:17;7.78;;;1.63;;
20637;SDS011;10478;49.004;8.470;2022-07-15T08:11:42;6.32;;;1.65;;
20637;SDS011;10478;49.004;8.470;2022-07-15T08:14:09;2.20;;;1.00;;
20637;SDS011;10478;49.004;8.470;2022-07-15T08:16:35;3.63;;;1.45;;
20637;SDS011;10478;49.004;8.470;2022-07-15T08:19:00;2.78;;;1.20;;
20637;SDS011;10478;49.004;8.470;2022-07-15T08:21:25;2.40;;;1.27;;
20637;SDS011;10478;49.004;8.470;2022-07-15T08:23:51;9.77;;;4.85;;
20637;SDS011;10478;49.004;8.470;2022-07-15T08:26:16;2.92;;;1.15;;
20637;SDS011;10478;49.004;8.470;2022-07-15T08:28:48;3.00;;;1.40;;
20637;SDS011;10478;49.004;8.470;2022-07-15T08:31:13;4.32;;;1.40;;
20637;SDS011;10478;49.004;8.470;2022-07-15T08:33:38;2.78;;;1.17;;
20637;SDS011;10478;49.004;8.470;2022-07-15T08:36:04;6.00;;;1.20;;
20637;SDS011;10478;49.004;8.470;2022-07-15T08:38:31;4.97;;;1.30;;
20637;SDS011;10478;49.004;8.470;2022-07-15T08:40:56;2.50;;;1.17;;
20637;SDS011;10478;49.004;8.470;2022-07-15T08:43:22;5.13;;;1.20;;
20637;SDS011;10478;49.004;8.470;2022-07-15T08:45:47;7.32;;;1.25;;
20637;SDS011;10478;49.004;8.470;2022-07-15T08:48:13;6.32;;;1.30;;
20637;SDS011;10478;49.004;8.470;2022-07-15T08:50:38;5.05;;;0.93;;
20637;SDS011;10478;49.004;8.470;2022-07-15T08:53:06;2.50;;;1.50;;
20637;SDS011;10478;49.004;8.470;2022-07-15T08:55:31;1.77;;;1.20;;
20637;SDS011;10478;49.004;8.470;2022-07-15T08:57:57;2.60;;;1.27;;
20637;SDS011;10478;49.004;8.470;2022-07-15T09:00:23;2.47;;;1.05;;
20637;SDS011;10478;49.004;8.470;2022-07-15T09:02:55;5.53;;;1.25;;
20637;SDS011;10478;49.004;8.470;2022-07-15T09:05:32;2.47;;;1.40;;
20637;SDS011;10478;49.004;8.470;2022-07-15T09:10:44;5.05;;;1.33;;
20637;SDS011;10478;49.004;8.470;2022-07-15T09:13:10;2.72;;;1.52;;
20637;SDS011;10478;49.004;8.470;2022-07-15T09:15:37;1.77;;;1.15;;
20637;SDS011;10478;49.004;8.470;2022-07-15T09:18:05;4.20;;;1.10;;
20637;SDS011;10478;49.004;8.470;2022-07-15T09:20:32;2.13;;;1.35;;
20637;SDS011;10478;49.004;8.470;2022-07-15T09:22:57;3.65;;;1.33;;
20637;SDS011;10478;49.004;8.470;2022-07-15T09:25:23;3.42;;;1.48;;
20637;SDS011;10478;49.004;8.470;2022-07-15T09:27:49;1.77;;;1.20;;
20637;SDS011;10478;49.004;8.470;2022-07-15T09:30:22;5.50;;;1.00;;
20637;SDS011;10478;49.004;8.470;2022-07-15T09:33:11;2.13;;;1.08;;
20637;SDS011;10478;49.004;8.470;2022-07-15T09:36:01;4.22;;;1.27;;
20637;SDS011;10478;49.004;8.470;2022-07-15T09:38:27;6.00;;;1.83;;
20637;SDS011;10478;49.004;8.470;2022-07-15T09:40:55;3.35;;;1.27;;
20637;SDS011;10478;49.004;8.470;2022-07-15T09:43:20;5.25;;;1.50;;
20637;SDS011;10478;49.004;8.470;2022-07-15T09:45:46;4.07;;;1.80;;
20637;SDS011;10478;49.004;8.470;2022-07-15T09:48:11;2.38;;;1.05;;
20637;SDS011;10478;49.004;8.470;2022-07-15T09:50:40;2.35;;;1.20;;
20637;SDS011;10478;49.004;8.470;2022-07-15T09:53:13;6.15;;;1.85;;
20637;SDS011;10478;49.004;8.470;2022-07-15T09:55:39;2.53;;;1.00;;
20637;SDS011;10478;49.004;8.470;2022-07-15T09:58:05;6.70;;;1.30;;
20637;SDS011;10478;49.004;8.470;2022-07-15T10:00:33;4.55;;;2.90;;
20637;SDS011;10478;49.004;8.470;2022-07-15T10:02:59;2.47;;;1.42;;
20637;SDS011;10478;49.004;8.470;2022-07-15T10:05:24;2.22;;;1.15;;
20637;SDS011;10478;49.004;8.470;2022-07-15T10:07:52;6.53;;;3.20;;
20637;SDS011;10478;49.004;8.470;2022-07-15T10:10:21;6.20;;;2.25;;
20637;SDS011;10478;49.004;8.470;2022-07-15T10:29:29;2.53;;;1.20;;
20637;SDS011;10478;49.004;8.470;2022-07-15T10:31:56;4.03;;;1.83;;
20637;SDS011;10478;49.004;8.470;2022-07-15T10:34:23;5.20;;;1.30;;
20637;SDS011;10478;49.004;8.470;2022-07-15T10:39:22;2.53;;;1.00;;
20637;SDS011;10478;49.004;8.470;2022-07-15T10:41:56;3.40;;;1.15;;
20637;SDS011;10478;49.004;8.470;2022-07-15T10:44:23;6.00;;;1.73;;
20637;SDS011;10478;49.004;8.470;2022-07-15T10:49:46;2.70;;;1.10;;
20637;SDS011;10478;49.004;8.470;2022-07-15T10:52:19;2.72;;;1.40;;
20637;SDS011;10478;49.004;8.470;2022-07-15T10:54:47;3.83;;;1.50;;
20637;SDS011;10478;49.004;8.470;2022-07-15T11:03:05;3.92;;;1.35;;
20637;SDS011;10478;49.004;8.470;2022-07-15T11:05:35;4.32;;;1.27;;
20637;SDS011;10478;49.004;8.470;2022-07-15T11:08:50;1.67;;;1.20;;
20637;SDS011;10478;49.004;8.470;2022-07-15T11:10:56;1.92;;;1.13;;
20637;SDS011;10478;49.004;8.470;2022-07-15T11:13:34;2.67;;;1.10;;
20637;SDS011;10478;49.004;8.470;2022-07-15T11:15:59;5.43;;;1.45;;
20637;SDS011;10478;49.004;8.470;2022-07-15T11:18:25;6.40;;;1.48;;
20637;SDS011;10478;49.004;8.470;2022-07-15T11:20:50;3.28;;;1.38;;
20637;SDS011;10478;49.004;8.470;2022-07-15T11:23:16;4.45;;;1.48;;
20637;SDS011;10478;49.004;8.470;2022-07-15T11:25:42;2.60;;;1.10;;
20637;SDS011;10478;49.004;8.470;2022-07-15T11:28:09;3.88;;;1.50;;
20637;SDS011;10478;49.004;8.470;2022-07-15T11:33:01;3.13;;;1.23;;
20637;SDS011;10478;49.004;8.470;2022-07-15T11:35:29;1.90;;;1.20;;
20637;SDS011;10478;49.004;8.470;2022-07-15T11:37:59;3.42;;;1.20;;
20637;SDS011;10478;49.004;8.470;2022-07-15T11:40:26;2.80;;;1.63;;
20637;SDS011;10478;49.004;8.470;2022-07-15T11:43:12;4.73;;;1.50;;
20637;SDS011;10478;49.004;8.470;2022-07-15T11:45:58;5.75;;;1.33;;
20637;SDS011;10478;49.004;8.470;2022-07-15T11:48:24;11.07;;;2.00;;
20637;SDS011;10478;49.004;8.470;2022-07-15T11:50:50;6.20;;;1.40;;
20637;SDS011;10478;49.004;8.470;2022-07-15T11:53:17;5.13;;;1.40;;
20637;SDS011;10478;49.004;8.470;2022-07-15T11:58:28;6.22;;;1.90;;
20637;SDS011;10478;49.004;8.470;2022-07-15T12:00:55;4.15;;;1.60;;
20637;SDS011;10478;49.004;8.470;2022-07-15T12:03:21;3.05;;;1.58;;
20637;SDS011;10478;49.004;8.470;2022-07-15T12:06:02;9.07;;;1.77;;
20637;SDS011;10478;49.004;8.470;2022-07-15T12:11:21;3.75;;;2.22;;
20637;SDS011;10478;49.004;8.470;2022-07-15T12:13:54;5.20;;;1.33;;
20637;SDS011;10478;49.004;8.470;2022-07-15T12:16:46;4.30;;;1.58;;
20637;SDS011;10478;49.004;8.470;2022-07-15T12:19:13;1.88;;;1.30;;
20637;SDS011;10478;49.004;8.470;2022-07-15T12:21:49;5.05;;;1.42;;
20637;SDS011;10478;49.004;8.470;2022-07-15T12:24:20;4.55;;;1.15;;
20637;SDS011;10478;49.004;8.470;2022-07-15T12:29:16;3.25;;;1.25;;
20637;SDS011;10478;49.004;8.470;2022-07-15T12:31:43;3.60;;;1.33;;
20637;SDS011;10478;49.004;8.470;2022-07-15T12:34:16;3.58;;;1.98;;
20637;SDS011;10478;49.004;8.470;2022-07-15T12:36:41;5.50;;;1.55;;
20637;SDS011;10478;49.004;8.470;2022-07-15T12:41:37;1.33;;;1.00;;
20637;SDS011;10478;49.004;8.470;2022-07-15T12:44:04;2.55;;;1.50;;
20637;SDS011;10478;49.004;8.470;2022-07-15T12:52:25;2.65;;;1.38;;
20637;SDS011;10478;49.004;8.470;2022-07-15T12:54:55;2.83;;;1.00;;
20637;SDS011;10478;49.004;8.470;2022-07-15T12:57:25;3.50;;;1.73;;
20637;SDS011;10478;49.004;8.470;2022-07-15T12:59:54;3.17;;;1.42;;
20637;SDS011;10478;49.004;8.470;2022-07-15T13:02:22;4.10;;;1.45;;
20637;SDS011;10478;49.004;8.470;2022-07-15T13:04:47;4.38;;;1.30;;
20637;SDS011;10478;49.004;8.470;2022-07-15T13:07:14;4.15;;;1.35;;
20637;SDS011;10478;49.004;8.470;2022-07-15T13:09:40;3.50;;;0.90;;
20637;SDS011;10478;49.004;8.470;2022-07-15T13:12:05;2.35;;;1.20;;
20637;SDS011;10478;49.004;8.470;2022-07-15T13:14:33;4.72;;;1.52;;
20637;SDS011;10478;49.004;8.470;2022-07-15T13:16:58;3.67;;;1.85;;
20637;SDS011;10478;49.004;8.470;2022-07-15T13:19:23;4.85;;;1.35;;
20637;SDS011;10478;49.004;8.470;2022-07-15T13:21:48;5.13;;;1.50;;
20637;SDS011;10478;49.004;8.470;2022-07-15T13:24:14;3.35;;;1.55;;
20637;SDS011;10478;49.004;8.470;2022-07-15T13:26:39;2.28;;;1.15;;
20637;SDS011;10478;49.004;8.470;2022-07-15T13:29:04;4.13;;;1.65;;
20637;SDS011;10478;49.004;8.470;2022-07-15T13:31:30;2.97;;;1.50;;
20637;SDS011;10478;49.004;8.470;2022-07-15T13:33:55;5.28;;;1.45;;
20637;SDS011;10478;49.004;8.470;2022-07-15T13:36:20;4.30;;;1.73;;
20637;SDS011;10478;49.004;8.470;2022-07-15T13:38:47;4.43;;;1.70;;
20637;SDS011;10478;49.004;8.470;2022-07-15T13:41:13;2.08;;;1.48;;
20637;SDS011;10478;49.004;8.470;2022-07-15T13:43:38;5.78;;;1.88;;
20637;SDS011;10478;49.004;8.470;2022-07-15T13:46:03;3.17;;;1.48;;
20637;SDS011;10478;49.004;8.470;2022-07-15T13:48:29;2.53;;;1.40;;
20637;SDS011;10478;49.004;8.470;2022-07-15T13:50:54;2.40;;;1.27;;
20637;SDS011;10478;49.004;8.470;2022-07-15T13:53:38;13.85;;;1.83;;
20637;SDS011;10478;49.004;8.470;2022-07-15T13:56:03;4.95;;;1.30;;
20637;SDS011;10478;49.004;8.470;2022-07-15T13:58:29;2.40;;;1.55;;
20637;SDS011;10478;49.004;8.470;2022-07-15T14:00:54;2.60;;;1.67;;
20637;SDS011;10478;49.004;8.470;2022-07-15T14:03:19;1.40;;;1.20;;
20637;SDS011;10478;49.004;8.470;2022-07-15T14:05:45;3.95;;;1.95;;
20637;SDS011;10478;49.004;8.470;2022-07-15T14:08:11;3.53;;;1.67;;
20637;SDS011;10478;49.004;8.470;2022-07-15T14:10:36;5.43;;;2.03;;
20637;SDS011;10478;49.004;8.470;2022-07-15T14:13:01;1.70;;;1.30;;
20637;SDS011;10478;49.004;8.470;2022-07-15T14:15:27;3.72;;;1.77;;
20637;SDS011;10478;49.004;8.470;2022-07-15T14:17:52;2.80;;;1.60;;
20637;SDS011;10478;49.004;8.470;2022-07-15T14:20:18;2.00;;;1.17;;
20637;SDS011;10478;49.004;8.470;2022-07-15T14:22:43;2.75;;;1.25;;
20637;SDS011;10478;49.004;8.470;2022-07-15T14:25:08;3.90;;;1.70;;
20637;SDS011;10478;49.004;8.470;2022-07-15T14:27:34;5.20;;;1.50;;
20637;SDS011;10478;49.004;8.470;2022-07-15T14:30:00;3.65;;;1.70;;
20637;SDS011;10478;49.004;8.470;2022-07-15T14:32:25;5.97;;;2.30;;
20637;SDS011;10478;49.004;8.470;2022-07-15T14:34:51;3.67;;;1.65;;
20637;SDS011;10478;49.004;8.470;2022-07-15T14:37:16;2.25;;;1.42;;
20637;SDS011;10478;49.004;8.470;2022-07-15T14:39:41;5.30;;;1.60;;
20637;SDS011;10478;49.004;8.470;2022-07-15T14:42:07;7.78;;;2.47;;
20637;SDS011;10478;49.004;8.470;2022-07-15T14:44:32;2.88;;;2.10;;
20637;SDS011;10478;49.004;8.470;2022-07-15T14:46:57;6.78;;;2.67;;
20637;SDS011;10478;49.004;8.470;2022-07-15T14:49:23;6.38;;;2.88;;
20637;SDS011;10478;49.004;8.470;2022-07-15T14:51:49;4.35;;;1.20;;
20637;SDS011;10478;49.004;8.470;2022-07-15T14:54:14;6.55;;;2.75;;
20637;SDS011;10478;49.004;8.470;2022-07-15T14:56:40;5.97;;;3.38;;
20637;SDS011;10478;49.004;8.470;2022-07-15T14:59:05;6.93;;;2.75;;
20637;SDS011;10478;49.004;8.470;2022-07-15T15:01:30;6.88;;;2.55;;
20637;SDS011;10478;49.004;8.470;2022-07-15T15:03:55;4.38;;;1.73;;
20637;SDS011;10478;49.004;8.470;2022-07-15T15:06:21;6.25;;;1.52;;
20637;SDS011;10478;49.004;8.470;2022-07-15T15:08:46;5.90;;;2.00;;
20637;SDS011;10478;49.004;8.470;2022-07-15T15:11:11;3.08;;;2.03;;
20637;SDS011;10478;49.004;8.470;2022-07-15T15:13:37;4.10;;;1.60;;
20637;SDS011;10478;49.004;8.470;2022-07-15T15:16:02;3.28;;;1.52;;
20637;SDS011;10478;49.004;8.470;2022-07-15T15:18:28;3.85;;;1.63;;
20637;SDS011;10478;49.004;8.470;2022-07-15T15:20:53;2.40;;;1.50;;
20637;SDS011;10478;49.004;8.470;2022-07-15T15:23:18;3.28;;;1.60;;
20637;SDS011;10478;49.004;8.470;2022-07-15T15:25:44;5.07;;;1.70;;
20637;SDS011;10478;49.004;8.470;2022-07-15T15:28:27;5.88;;;1.80;;
20637;SDS011;10478;49.004;8.470;2022-07-15T15:30:54;4.78;;;1.85;;
20637;SDS011;10478;49.004;8.470;2022-07-15T15:33:19;10.20;;;6.95;;